createdAt,value
2022-10-11T00:01:41.704Z,13.30
2022-10-11T00:04:09.967Z,14.38
2022-10-11T00:06:43.330Z,14.13
2022-10-11T00:09:16.048Z,14.25
2022-10-11T00:11:43.532Z,17.20
2022-10-11T00:14:10.837Z,12.65
2022-10-11T00:16:40.953Z,12.18
2022-10-11T00:19:08.081Z,13.07
2022-10-11T00:21:36.670Z,12.93
2022-10-11T00:24:04.216Z,13.70
2022-10-11T00:26:31.420Z,13.02
2022-10-11T00:28:58.585Z,11.90
2022-10-11T00:31:25.856Z,13.38
2022-10-11T00:33:54.139Z,12.55
2022-10-11T00:36:21.551Z,12.60
2022-10-11T00:38:49.133Z,13.35
2022-10-11T00:41:17.297Z,12.27
2022-10-11T00:43:44.917Z,12.82
2022-10-11T00:46:28.725Z,15.00
2022-10-11T00:49:05.219Z,11.88
2022-10-11T00:51:32.658Z,13.27
2022-10-11T00:54:00.629Z,12.32
2022-10-11T00:56:31.503Z,12.82
2022-10-11T00:59:00.902Z,12.50
2022-10-11T01:01:28.147Z,12.07
2022-10-11T01:03:56.173Z,11.98
2022-10-11T01:06:23.472Z,12.40
2022-10-11T01:08:52.200Z,12.68
2022-10-11T01:11:20.985Z,12.07
2022-10-11T01:14:00.365Z,11.68
2022-10-11T01:16:40.032Z,12.57
2022-10-11T01:19:33.476Z,13.02
2022-10-11T01:22:03.681Z,11.15
2022-10-11T01:24:46.215Z,11.77
2022-10-11T01:27:16.342Z,12.70
2022-10-11T01:30:06.600Z,11.93
2022-10-11T01:32:36.887Z,12.70
2022-10-11T01:35:09.336Z,13.10
2022-10-11T01:37:45.187Z,13.02
2022-10-11T01:40:16.730Z,11.82
2022-10-11T01:42:44.667Z,12.70
2022-10-11T01:45:15.103Z,11.98
2022-10-11T01:47:42.605Z,11.15
2022-10-11T01:50:29.711Z,11.10
2022-10-11T01:52:59.280Z,11.10
2022-10-11T01:55:30.518Z,11.98
2022-10-11T01:58:06.225Z,11.43
2022-10-11T02:03:18.937Z,11.20
2022-10-11T02:05:55.107Z,12.15
2022-10-11T02:08:22.221Z,10.93
2022-10-11T02:11:09.614Z,11.05
2022-10-11T02:13:48.039Z,11.80
2022-10-11T02:16:18.365Z,10.40
2022-10-11T02:18:48.113Z,11.70
2022-10-11T02:21:17.689Z,10.77
2022-10-11T02:23:48.356Z,11.73
2022-10-11T02:26:15.829Z,11.00
2022-10-11T02:28:43.947Z,11.15
2022-10-11T02:31:11.867Z,10.15
2022-10-11T02:33:45.753Z,10.48
2022-10-11T02:36:16.938Z,10.63
2022-10-11T02:38:50.303Z,10.82
2022-10-11T02:41:42.979Z,11.15
2022-10-11T02:44:13.370Z,10.18
2022-10-11T02:46:40.803Z,10.75
2022-10-11T02:49:08.361Z,9.93
2022-10-11T02:51:36.600Z,10.65
2022-10-11T02:54:03.782Z,10.43
2022-10-11T02:56:30.943Z,10.60
2022-10-11T02:58:58.124Z,10.48
2022-10-11T03:01:25.761Z,10.65
2022-10-11T03:03:52.954Z,10.63
2022-10-11T03:06:20.288Z,9.82
2022-10-11T03:08:47.551Z,10.18
2022-10-11T03:11:14.697Z,10.00
2022-10-11T03:13:41.802Z,9.98
2022-10-11T03:16:09.363Z,9.60
2022-10-11T03:18:36.893Z,9.38
2022-10-11T03:21:04.181Z,10.40
2022-10-11T03:23:31.356Z,9.45
2022-10-11T03:25:58.549Z,10.30
2022-10-11T03:28:25.811Z,10.18
2022-10-11T03:30:53.070Z,10.63
2022-10-11T03:33:20.395Z,10.95
2022-10-11T03:35:48.022Z,11.45
2022-10-11T03:38:16.944Z,9.50
2022-10-11T03:40:44.539Z,9.35
2022-10-11T03:43:11.750Z,10.00
2022-10-11T03:45:39.065Z,9.85
2022-10-11T03:48:06.433Z,10.43
2022-10-11T03:50:33.568Z,10.35
2022-10-11T03:53:00.905Z,9.80
2022-10-11T03:55:28.086Z,13.43
2022-10-11T03:57:55.259Z,9.98
2022-10-11T04:00:22.424Z,10.27
2022-10-11T04:02:49.653Z,10.73
2022-10-11T04:05:16.804Z,9.90
2022-10-11T04:07:44.055Z,9.07
2022-10-11T04:10:11.251Z,8.88
2022-10-11T04:12:39.156Z,9.32
2022-10-11T04:15:07.035Z,9.23
2022-10-11T04:17:34.165Z,9.27
2022-10-11T04:20:01.307Z,9.80
2022-10-11T04:22:28.505Z,9.70
2022-10-11T04:24:55.653Z,9.98
2022-10-11T04:27:22.834Z,9.30
2022-10-11T04:29:50.003Z,9.30
2022-10-11T04:32:17.159Z,9.55
2022-10-11T04:34:44.349Z,9.65
2022-10-11T04:37:11.488Z,9.02
2022-10-11T04:39:38.682Z,9.20
2022-10-11T04:42:05.887Z,9.80
2022-10-11T04:44:33.107Z,10.15
2022-10-11T04:47:00.338Z,10.00
2022-10-11T04:49:27.616Z,10.10
2022-10-11T04:51:54.817Z,10.02
2022-10-11T04:54:21.970Z,9.65
2022-10-11T04:56:49.096Z,10.10
2022-10-11T04:59:16.267Z,9.38
2022-10-11T05:01:43.534Z,10.68
2022-10-11T05:04:10.695Z,9.48
2022-10-11T05:06:37.911Z,8.70
2022-10-11T05:09:05.069Z,9.35
2022-10-11T05:11:32.209Z,11.13
2022-10-11T05:14:00.244Z,10.27
2022-10-11T05:16:27.484Z,10.27
2022-10-11T05:18:54.613Z,10.20
2022-10-11T05:21:25.791Z,11.88
2022-10-11T05:23:55.804Z,15.70
2022-10-11T05:26:23.599Z,10.82
2022-10-11T05:28:50.987Z,10.82
2022-10-11T05:31:18.325Z,10.65
2022-10-11T05:33:45.482Z,9.73
2022-10-11T05:36:12.948Z,9.80
2022-10-11T05:38:40.262Z,11.13
2022-10-11T05:41:09.068Z,14.07
2022-10-11T05:43:36.362Z,11.52
2022-10-11T05:46:03.892Z,11.20
2022-10-11T05:48:31.304Z,10.13
2022-10-11T05:51:02.958Z,12.30
2022-10-11T05:53:30.585Z,14.50
2022-10-11T05:55:58.046Z,12.00
2022-10-11T05:58:25.208Z,11.88
2022-10-11T06:00:52.459Z,14.40
2022-10-11T06:03:21.054Z,16.10
2022-10-11T06:05:50.403Z,15.45
2022-10-11T06:08:20.013Z,15.02
2022-10-11T06:10:47.513Z,13.27
2022-10-11T06:13:14.639Z,17.30
2022-10-11T06:15:41.782Z,16.83
2022-10-11T06:18:09.043Z,17.30
2022-10-11T06:20:36.241Z,18.85
2022-10-11T06:23:03.643Z,16.67
2022-10-11T06:25:30.832Z,19.02
2022-10-11T06:27:57.937Z,17.58
2022-10-11T06:30:25.224Z,16.85
2022-10-11T06:32:52.404Z,16.48
2022-10-11T06:35:19.763Z,18.52
2022-10-11T06:37:47.093Z,18.45
2022-10-11T06:40:14.284Z,16.55
2022-10-11T06:42:41.472Z,19.20
2022-10-11T06:45:08.796Z,20.83
2022-10-11T06:47:35.997Z,17.27
2022-10-11T06:50:03.172Z,16.40
2022-10-11T06:52:30.372Z,15.88
2022-10-11T06:54:57.727Z,19.20
2022-10-11T06:57:25.280Z,18.15
2022-10-11T06:59:52.429Z,19.58
2022-10-11T07:02:19.595Z,17.05
2022-10-11T07:04:46.739Z,17.70
2022-10-11T07:07:14.634Z,16.33
2022-10-11T07:09:41.772Z,14.35
2022-10-11T07:12:09.081Z,14.52
2022-10-11T07:14:36.207Z,15.80
2022-10-11T07:17:03.513Z,15.48
2022-10-11T07:19:30.829Z,16.92
2022-10-11T07:21:58.078Z,16.13
2022-10-11T07:24:25.243Z,14.88
2022-10-11T07:26:52.414Z,13.70
2022-10-11T07:29:19.965Z,13.50
2022-10-11T07:31:47.100Z,14.75
2022-10-11T07:34:14.341Z,13.98
2022-10-11T07:36:41.494Z,12.52
2022-10-11T07:39:08.881Z,12.85
2022-10-11T07:41:39.668Z,13.07
2022-10-11T07:44:09.014Z,13.38
2022-10-11T07:46:36.333Z,13.25
2022-10-11T07:49:03.482Z,13.85
2022-10-11T07:51:30.608Z,14.05
2022-10-11T07:53:57.804Z,12.30
2022-10-11T07:56:29.444Z,12.40
2022-10-11T07:59:03.348Z,13.75
2022-10-11T08:01:31.069Z,12.18
2022-10-11T08:03:58.956Z,13.70
2022-10-11T08:06:29.282Z,14.20
2022-10-11T08:08:57.524Z,12.93
2022-10-11T08:11:26.225Z,11.77
2022-10-11T08:13:53.714Z,14.65
2022-10-11T08:16:21.282Z,15.98
2022-10-11T08:18:48.860Z,14.35
2022-10-11T08:21:17.400Z,13.32
2022-10-11T08:23:44.778Z,13.50
2022-10-11T08:26:12.411Z,13.02
2022-10-11T08:28:39.857Z,12.50
2022-10-11T08:31:07.252Z,13.65
2022-10-11T08:33:34.557Z,10.65
2022-10-11T08:36:04.804Z,11.75
2022-10-11T08:38:32.553Z,11.88
2022-10-11T08:41:00.261Z,13.38
2022-10-11T08:43:36.871Z,20.75
2022-10-11T08:46:05.548Z,20.92
2022-10-11T08:48:43.359Z,20.02
2022-10-11T08:51:16.274Z,16.40
2022-10-11T08:54:08.057Z,17.33
2022-10-11T08:56:40.256Z,21.45
2022-10-11T08:59:15.409Z,17.25
2022-10-11T09:01:48.723Z,19.95
2022-10-11T09:04:18.526Z,27.30
2022-10-11T09:07:00.214Z,36.60
2022-10-11T09:09:33.888Z,27.42
2022-10-11T09:12:01.017Z,21.77
2022-10-11T09:14:40.431Z,20.88
2022-10-11T09:17:19.377Z,20.98
2022-10-11T09:20:05.074Z,21.33
2022-10-11T09:22:32.177Z,22.33
2022-10-11T09:25:14.692Z,22.05
2022-10-11T09:28:01.733Z,38.15
2022-10-11T09:30:30.306Z,76.05
2022-10-11T09:32:57.854Z,69.60
2022-10-11T09:35:25.072Z,61.90
2022-10-11T09:37:58.464Z,49.63
2022-10-11T09:40:28.618Z,41.55
2022-10-11T09:42:56.549Z,36.50
2022-10-11T09:45:24.206Z,42.97
2022-10-11T09:47:53.133Z,34.42
2022-10-11T09:50:30.564Z,41.30
2022-10-11T09:53:03.510Z,34.35
2022-10-11T09:55:33.760Z,38.10
2022-10-11T09:58:01.012Z,29.02
2022-10-11T10:00:29.308Z,29.38
2022-10-11T10:02:58.069Z,26.00
2022-10-11T10:05:26.647Z,30.25
2022-10-11T10:08:12.157Z,23.77
2022-10-11T10:10:39.369Z,23.98
2022-10-11T10:13:28.147Z,22.58
2022-10-11T10:15:59.275Z,22.42
2022-10-11T10:18:29.387Z,21.17
2022-10-11T10:20:59.442Z,22.38
2022-10-11T10:23:34.853Z,25.75
2022-10-11T10:26:28.466Z,23.77
2022-10-11T10:29:10.978Z,24.58
2022-10-11T10:34:39.392Z,20.17
2022-10-11T10:37:15.442Z,24.85
2022-10-11T10:39:46.316Z,26.00
2022-10-11T10:42:19.045Z,26.00
2022-10-11T10:44:51.471Z,28.77
2022-10-11T10:47:30.578Z,30.63
2022-10-11T10:50:21.131Z,22.83
2022-10-11T10:52:57.301Z,26.38
2022-10-11T10:55:36.449Z,25.13
2022-10-11T10:58:22.210Z,25.17
2022-10-11T11:00:50.892Z,25.98
2022-10-11T11:03:23.285Z,21.27
2022-10-11T11:05:56.350Z,30.42
2022-10-11T11:08:42.399Z,27.90
2022-10-11T11:11:29.499Z,28.38
2022-10-11T11:14:03.556Z,27.88
2022-10-11T11:16:36.522Z,27.95
2022-10-11T11:19:18.984Z,25.77
2022-10-11T11:21:46.094Z,27.17
2022-10-11T11:24:19.069Z,24.90
2022-10-11T11:26:56.474Z,27.75
2022-10-11T11:29:35.602Z,23.58
2022-10-11T11:32:08.707Z,24.33
2022-10-11T11:34:47.363Z,23.17
2022-10-11T11:37:24.268Z,22.00
2022-10-11T11:40:11.660Z,22.13
2022-10-11T11:42:47.152Z,22.23
2022-10-11T11:45:25.698Z,20.45
2022-10-11T11:47:55.680Z,19.52
2022-10-11T11:50:28.564Z,20.90
2022-10-11T11:53:01.781Z,21.23
2022-10-11T11:55:33.364Z,19.23
2022-10-11T11:58:09.463Z,20.13
2022-10-11T12:00:46.607Z,19.63
2022-10-11T12:03:17.074Z,20.02
2022-10-11T12:06:04.141Z,17.75
2022-10-11T12:08:32.983Z,17.58
2022-10-11T12:11:02.367Z,20.17
2022-10-11T12:13:34.788Z,19.35
2022-10-11T12:16:12.280Z,17.48
2022-10-11T12:18:57.886Z,17.50
2022-10-11T12:21:31.242Z,17.08
2022-10-11T12:24:10.058Z,16.83
2022-10-11T12:26:37.209Z,17.60
2022-10-11T12:29:20.735Z,17.00
2022-10-11T12:31:50.872Z,20.27
2022-10-11T12:34:33.384Z,18.45
2022-10-11T12:37:05.932Z,17.70
2022-10-11T12:39:43.920Z,17.95
2022-10-11T12:42:30.393Z,17.88
2022-10-11T12:45:13.315Z,17.83
2022-10-11T12:47:48.417Z,18.60
2022-10-11T12:50:20.705Z,18.17
2022-10-11T12:52:50.850Z,19.65
2022-10-11T12:55:30.880Z,20.15
2022-10-11T12:58:13.441Z,30.42
2022-10-11T13:00:40.807Z,28.92
2022-10-11T13:03:31.206Z,32.13
2022-10-11T13:06:01.851Z,31.85
2022-10-11T13:08:32.265Z,27.48
2022-10-11T13:11:03.345Z,31.88
2022-10-11T13:13:54.201Z,30.60
2022-10-11T13:16:23.392Z,26.50
2022-10-11T13:18:55.105Z,26.33
2022-10-11T13:21:34.765Z,26.83
2022-10-11T13:24:03.063Z,25.88
2022-10-11T13:26:31.428Z,25.17
2022-10-11T13:29:00.099Z,23.90
2022-10-11T13:31:27.480Z,27.85
2022-10-11T13:33:56.005Z,26.48
2022-10-11T13:36:25.625Z,26.10
2022-10-11T13:38:59.576Z,23.35
2022-10-11T13:41:28.159Z,22.77
2022-10-11T13:43:59.581Z,22.60
2022-10-11T13:46:28.233Z,20.30
2022-10-11T13:49:01.697Z,22.65
2022-10-11T13:51:29.172Z,22.38
2022-10-11T13:54:00.647Z,25.10
2022-10-11T13:56:28.820Z,27.02
2022-10-11T13:58:56.491Z,30.55
2022-10-11T14:01:37.268Z,38.80
2022-10-11T14:04:06.096Z,39.90
2022-10-11T14:06:41.272Z,34.05
2022-10-11T14:09:15.259Z,35.50
2022-10-11T14:11:42.567Z,29.63
2022-10-11T14:14:29.445Z,29.35
2022-10-11T14:16:57.779Z,27.25
2022-10-11T14:19:25.078Z,26.25
2022-10-11T14:21:53.430Z,26.35
2022-10-11T14:24:21.251Z,25.80
2022-10-11T14:26:52.266Z,26.65
2022-10-11T14:29:22.547Z,25.58
2022-10-11T14:31:50.233Z,24.75
2022-10-11T14:34:19.243Z,23.35
2022-10-11T14:36:46.690Z,22.65
2022-10-11T14:39:18.613Z,22.48
2022-10-11T14:41:45.962Z,20.30
2022-10-11T14:44:13.522Z,22.90
2022-10-11T14:46:41.355Z,24.13
2022-10-11T14:49:15.712Z,19.05
2022-10-11T14:51:43.373Z,16.73
2022-10-11T14:54:10.561Z,19.20
2022-10-11T14:56:38.101Z,22.25
2022-10-11T14:59:05.675Z,25.27
2022-10-11T15:01:32.934Z,20.85
2022-10-11T15:04:00.164Z,22.45
2022-10-11T15:06:29.593Z,21.40
2022-10-11T15:08:56.916Z,25.90
2022-10-11T15:11:25.598Z,23.80
2022-10-11T15:13:52.775Z,22.48
2022-10-11T15:16:20.988Z,21.42
2022-10-11T15:18:52.193Z,23.98
2022-10-11T15:21:23.487Z,20.73
2022-10-11T15:23:51.622Z,22.23
2022-10-11T15:26:21.534Z,19.15
2022-10-11T15:28:49.391Z,21.45
2022-10-11T15:31:16.865Z,21.85
2022-10-11T15:33:44.529Z,23.23
2022-10-11T15:36:16.108Z,23.40
2022-10-11T15:38:43.967Z,21.33
2022-10-11T15:41:13.292Z,22.08
2022-10-11T15:43:41.421Z,21.33
2022-10-11T15:46:09.341Z,22.67
2022-10-11T15:48:37.884Z,23.30
2022-10-11T15:51:05.185Z,21.48
2022-10-11T15:53:32.500Z,21.08
2022-10-11T15:56:02.158Z,23.58
2022-10-11T15:58:29.464Z,23.83
2022-10-11T16:00:57.482Z,20.48
2022-10-11T16:03:29.632Z,25.23
2022-10-11T16:06:01.075Z,18.60
2022-10-11T16:08:31.119Z,23.42
2022-10-11T16:10:59.569Z,22.63
2022-10-11T16:13:26.832Z,20.08
2022-10-11T16:15:54.120Z,21.63
2022-10-11T16:18:22.242Z,19.15
2022-10-11T16:20:51.870Z,23.60
2022-10-11T16:23:20.071Z,18.23
2022-10-11T16:25:47.275Z,19.27
2022-10-11T16:28:14.535Z,15.95
2022-10-11T16:30:45.570Z,22.13
2022-10-11T16:33:12.847Z,22.33
2022-10-11T16:35:43.282Z,24.35
2022-10-11T16:38:10.813Z,21.80
2022-10-11T16:40:39.101Z,21.52
2022-10-11T16:43:07.939Z,19.25
2022-10-11T16:45:35.413Z,20.58
2022-10-11T16:48:03.449Z,26.67
2022-10-11T16:50:33.393Z,26.73
2022-10-11T16:53:04.358Z,19.45
2022-10-11T16:55:33.234Z,22.05
2022-10-11T16:58:00.602Z,17.38
2022-10-11T17:00:28.395Z,20.73
2022-10-11T17:02:55.770Z,26.52
2022-10-11T17:05:25.698Z,18.75
2022-10-11T17:07:53.263Z,16.00
2022-10-11T17:10:39.616Z,22.58
2022-10-11T17:13:07.400Z,21.88
2022-10-11T17:15:35.948Z,22.60
2022-10-11T17:18:03.079Z,20.50
2022-10-11T17:20:30.209Z,24.98
2022-10-11T17:22:57.377Z,19.30
2022-10-11T17:25:24.953Z,19.60
2022-10-11T17:27:52.085Z,20.77
2022-10-11T17:30:19.197Z,19.85
2022-10-11T17:32:46.368Z,16.48
2022-10-11T17:35:13.508Z,18.85
2022-10-11T17:37:40.706Z,20.48
2022-10-11T17:40:08.268Z,18.60
2022-10-11T17:42:35.449Z,22.35
2022-10-11T17:45:02.580Z,18.58
2022-10-11T17:47:30.190Z,24.10
2022-10-11T17:49:57.318Z,16.65
2022-10-11T17:52:24.421Z,16.30
2022-10-11T17:54:51.569Z,16.80
2022-10-11T17:57:18.696Z,17.23
2022-10-11T17:59:45.927Z,22.17
2022-10-11T18:02:14.573Z,15.13
2022-10-11T18:04:42.000Z,16.05
2022-10-11T18:07:09.160Z,15.63
2022-10-11T18:09:36.787Z,13.00
2022-10-11T18:12:04.840Z,15.30
2022-10-11T18:14:32.853Z,17.80
2022-10-11T18:17:00.017Z,16.73
2022-10-11T18:19:27.227Z,15.90
2022-10-11T18:21:54.353Z,14.80
2022-10-11T18:24:21.570Z,17.65
2022-10-11T18:26:48.767Z,13.68
2022-10-11T18:29:16.228Z,14.55
2022-10-11T18:31:43.470Z,13.68
2022-10-11T18:34:11.286Z,12.00
2022-10-11T18:36:39.045Z,14.10
2022-10-11T18:39:07.819Z,13.25
2022-10-11T18:41:35.583Z,11.48
2022-10-11T18:44:04.289Z,11.35
2022-10-11T18:46:31.694Z,15.80
2022-10-11T18:49:01.279Z,15.80
2022-10-11T18:51:29.795Z,14.43
2022-10-11T18:53:58.797Z,13.73
2022-10-11T18:56:27.111Z,17.63
2022-10-11T18:58:55.356Z,12.10
2022-10-11T19:01:24.408Z,12.20
2022-10-11T19:03:53.195Z,15.38
2022-10-11T19:06:21.793Z,15.30
2022-10-11T19:08:50.826Z,10.50
2022-10-11T19:11:22.260Z,15.20
2022-10-11T19:13:49.933Z,12.90
2022-10-11T19:16:17.860Z,11.77
2022-10-11T19:18:45.077Z,12.45
2022-10-11T19:21:13.387Z,12.98
2022-10-11T19:23:42.102Z,12.35
2022-10-11T19:26:29.989Z,13.13
2022-10-11T19:28:58.393Z,10.60
2022-10-11T19:31:25.817Z,10.43
2022-10-11T19:33:53.131Z,12.02
2022-10-11T19:36:20.672Z,12.05
2022-10-11T19:38:49.013Z,12.88
2022-10-11T19:41:17.349Z,10.10
2022-10-11T19:43:44.839Z,11.18
2022-10-11T19:46:20.315Z,14.13
2022-10-11T19:48:51.326Z,20.00
2022-10-11T19:51:21.485Z,10.93
2022-10-11T19:53:49.926Z,11.82
2022-10-11T19:56:21.436Z,13.50
2022-10-11T19:58:49.334Z,17.95
2022-10-11T20:01:18.441Z,12.02
2022-10-11T20:03:50.538Z,12.07
2022-10-11T20:06:18.320Z,14.35
2022-10-11T20:08:46.347Z,11.63
2022-10-11T20:11:14.001Z,14.05
2022-10-11T20:13:41.236Z,15.93
2022-10-11T20:16:10.044Z,13.25
2022-10-11T20:18:37.908Z,12.48
2022-10-11T20:21:06.580Z,13.32
2022-10-11T20:23:34.553Z,13.32
2022-10-11T20:26:02.983Z,15.00
2022-10-11T20:28:31.615Z,12.73
2022-10-11T20:31:02.718Z,15.27
2022-10-11T20:33:30.749Z,11.73
2022-10-11T20:36:21.145Z,18.85
2022-10-11T20:38:49.156Z,13.70
2022-10-11T20:41:18.342Z,14.00
2022-10-11T20:43:46.394Z,13.13
2022-10-11T20:46:17.929Z,16.08
2022-10-11T20:49:04.505Z,9.13
2022-10-11T20:51:32.666Z,11.02
2022-10-11T20:54:00.665Z,16.25
2022-10-11T20:56:27.864Z,14.00
2022-10-11T20:58:55.839Z,15.70
2022-10-11T21:01:27.426Z,10.98
2022-10-11T21:03:55.290Z,7.55
2022-10-11T21:06:22.451Z,11.05
2022-10-11T21:08:49.646Z,13.77
2022-10-11T21:11:16.812Z,11.52
2022-10-11T21:13:43.991Z,11.25
2022-10-11T21:16:15.659Z,11.45
2022-10-11T21:18:43.065Z,15.07
2022-10-11T21:21:11.635Z,9.23
2022-10-11T21:23:39.152Z,10.48
2022-10-11T21:26:07.905Z,10.77
2022-10-11T21:28:35.494Z,8.80
2022-10-11T21:31:06.711Z,11.45
2022-10-11T21:33:34.779Z,13.10
2022-10-11T21:36:08.859Z,9.82
2022-10-11T21:38:36.137Z,17.83
2022-10-11T21:41:04.362Z,13.45
2022-10-11T21:43:31.561Z,12.38
2022-10-11T21:45:58.779Z,12.57
2022-10-11T21:48:25.952Z,11.90
2022-10-11T21:50:53.805Z,11.68
2022-10-11T21:53:21.154Z,9.65
2022-10-11T21:55:48.330Z,9.32
2022-10-11T21:58:15.481Z,9.13
2022-10-11T22:00:42.642Z,13.60
2022-10-11T22:03:09.840Z,11.00
2022-10-11T22:05:37.671Z,17.02
2022-10-11T22:08:04.800Z,10.23
2022-10-11T22:10:34.474Z,8.20
2022-10-11T22:13:01.589Z,10.95
2022-10-11T22:15:29.833Z,13.27
2022-10-11T22:17:57.144Z,10.45
2022-10-11T22:20:24.452Z,10.52
2022-10-11T22:22:51.610Z,11.32
2022-10-11T22:25:18.858Z,10.40
2022-10-11T22:27:46.146Z,10.93
2022-10-11T22:30:13.331Z,7.32
2022-10-11T22:32:40.564Z,10.02
2022-10-11T22:35:07.960Z,15.55
2022-10-11T22:37:35.270Z,10.18
2022-10-11T22:40:02.939Z,15.07
2022-10-11T22:42:30.519Z,6.78
2022-10-11T22:44:57.955Z,11.85
2022-10-11T22:47:25.607Z,9.70
2022-10-11T22:49:52.755Z,8.88
2022-10-11T22:52:19.950Z,11.07
2022-10-11T22:54:47.172Z,11.23
2022-10-11T22:57:14.328Z,13.45
2022-10-11T22:59:41.497Z,12.45
2022-10-11T23:02:08.651Z,11.65
2022-10-11T23:04:35.820Z,13.95
2022-10-11T23:07:05.102Z,11.13
2022-10-11T23:09:32.857Z,9.15
2022-10-11T23:12:00.105Z,13.23
2022-10-11T23:14:27.273Z,10.68
2022-10-11T23:16:54.451Z,10.23
2022-10-11T23:19:21.593Z,8.38
2022-10-11T23:21:49.027Z,11.73
2022-10-11T23:24:16.220Z,8.70
2022-10-11T23:26:43.433Z,12.00
2022-10-11T23:29:10.688Z,12.48
2022-10-11T23:31:37.836Z,9.25
2022-10-11T23:34:05.010Z,9.82
2022-10-11T23:36:32.177Z,9.63
2022-10-11T23:38:59.825Z,10.23
2022-10-11T23:41:28.862Z,10.40
2022-10-11T23:43:56.079Z,10.70
2022-10-11T23:46:23.228Z,8.48
2022-10-11T23:48:50.375Z,7.25
2022-10-11T23:51:17.619Z,11.55
2022-10-11T23:53:44.733Z,12.63
2022-10-11T23:56:12.356Z,7.15
2022-10-11T23:58:39.595Z,9.15
